Time;durP1;ratioP1;P1;durP2;ratioP2;P2;SDS_P1;SDS_P2;PMS_P1;PMS_P2;Temp;Humidity;BMP_temperature;BMP_pressure;BME280_temperature;BME280_humidity;BME280_pressure;Samples;Min_cycle;Max_cycle;Signal;HPM_P1;HPM_P2
2023/06/14 00:01:45;;;;;;;21.35;8.32;;;;;;;13.96;56.14;99986.28;6131700;23;20005;-91
2023/06/14 00:04:21;;;;;;;33.38;8.88;;;;;;;13.35;56.70;99909.16;6107267;23;19997;-93
2023/06/14 00:10:18;;;;;;;24.40;8.82;;;;;;;13.75;58.17;99985.25;6265846;23;20020;-93
2023/06/14 00:13:13;;;;;;;26.67;8.37;;;;;;;13.79;57.96;99995.28;6215780;23;20170;-92
2023/06/14 00:19:50;;;;;;;23.00;7.88;;;;;;;13.50;57.95;99975.75;6238817;23;20044;-92
2023/06/14 00:22:42;;;;;;;25.63;7.80;;;;;;;13.48;57.40;99972.53;6173994;23;20013;-91
2023/06/14 00:32:08;;;;;;;25.80;8.85;;;;;;;13.13;59.16;99923.69;6146310;23;20022;-92
2023/06/14 00:38:53;;;;;;;21.70;8.65;;;;;;;13.34;59.10;99959.72;6125197;23;20108;-92
2023/06/14 00:48:55;;;;;;;29.75;8.13;;;;;;;13.35;59.73;100008.00;6204830;23;20025;-92
2023/06/14 00:55:29;;;;;;;18.17;8.55;;;;;;;13.13;60.11;99973.13;6179145;23;20037;-94
2023/06/14 01:20:41;;;;;;;23.63;8.13;;;;;;;12.99;61.10;100001.78;6209112;23;20244;-92
2023/06/14 01:23:08;;;;;;;16.58;7.97;;;;;;;12.76;60.77;99957.06;6070133;23;20054;-91
2023/06/14 01:26:04;;;;;;;23.92;8.68;;;;;;;12.50;60.54;99910.22;6096703;23;20079;-91
2023/06/14 01:33:50;;;;;;;20.35;7.82;;;;;;;12.85;60.79;99957.94;6146344;23;20021;-92
2023/06/14 01:40:35;;;;;;;26.60;8.65;;;;;;;13.21;60.64;99999.03;6268595;22;20015;-92
2023/06/14 01:43:38;;;;;;;42.13;8.63;;;;;;;12.94;60.52;99951.34;6266424;23;20018;-91
2023/06/14 01:50:22;;;;;;;25.45;8.40;;;;;;;12.80;60.69;99922.38;6225232;23;20105;-92
2023/06/14 01:57:23;;;;;;;26.90;8.70;;;;;;;12.92;60.73;99917.94;6180536;23;20006;-92
2023/06/14 02:00:56;;;;;;;28.67;7.97;;;;;;;13.51;60.38;100005.69;6153157;23;20032;-92
2023/06/14 02:03:51;;;;;;;26.35;8.30;;;;;;;13.58;60.39;100007.97;6150531;23;20053;-94
2023/06/14 02:11:43;;;;;;;30.63;8.02;;;;;;;13.16;60.93;99906.59;6173256;23;20060;-95
2023/06/14 02:14:48;;;;;;;26.67;8.65;;;;;;;13.20;61.60;99905.97;6125974;23;20029;-92
2023/06/14 02:17:15;;;;;;;90.15;11.27;;;;;;;13.64;61.43;99968.22;6148912;23;20070;-93
2023/06/14 02:20:28;;;;;;;58.20;9.45;;;;;;;13.47;61.23;99936.00;6173933;23;20042;-93
2023/06/14 02:23:35;;;;;;;50.40;10.18;;;;;;;13.52;61.16;99924.06;6148466;23;20006;-92
2023/06/14 02:26:22;;;;;;;48.92;10.30;;;;;;;13.97;61.15;99978.84;6103662;23;20032;-92
2023/06/14 02:39:53;;;;;;;52.25;15.10;;;;;;;14.53;58.93;100007.44;6181167;23;20029;-91
2023/06/14 02:42:25;;;;;;;51.25;16.50;;;;;;;14.05;57.32;99912.09;6161177;23;20012;-93
2023/06/14 02:51:37;;;;;;;37.35;13.75;;;;;;;14.68;54.23;99946.44;6177016;23;20037;-94
2023/06/14 02:54:34;;;;;;;35.77;12.77;;;;;;;14.79;53.96;99952.41;6128205;23;20052;-93
2023/06/14 02:57:21;;;;;;;34.13;13.68;;;;;;;14.75;53.12;99929.44;6118961;23;20258;-92
2023/06/14 03:00:36;;;;;;;32.40;12.75;;;;;;;15.10;52.02;99968.75;6116904;23;20034;-95
2023/06/14 03:04:01;;;;;;;37.22;13.02;;;;;;;15.44;52.08;100002.84;6134879;23;20009;-95
2023/06/14 03:06:50;;;;;;;28.13;11.88;;;;;;;15.04;51.68;99937.81;6157038;23;20470;-92
2023/06/14 03:18:08;;;;;;;32.85;12.00;;;;;;;15.80;50.92;100009.88;6148404;23;20044;-95
2023/06/14 03:20:42;;;;;;;34.75;12.32;;;;;;;15.36;51.39;99926.50;6149242;23;20005;-94
2023/06/14 03:23:33;;;;;;;36.35;12.07;;;;;;;16.01;51.42;100009.94;6157857;23;20489;-93
2023/06/14 03:26:03;;;;;;;;;;;;;;;16.09;51.19;100014.59;6189788;23;20025;-93
2023/06/14 03:29:02;;;;;;;40.25;11.65;;;;;;;15.94;51.21;99974.59;6182983;23;19920;-93
2023/06/14 03:35:17;;;;;;;28.55;11.30;;;;;;;16.16;50.42;99973.53;6268586;22;20008;-94
2023/06/14 03:38:07;;;;;;;23.48;10.32;;;;;;;15.92;49.99;99932.75;6146167;23;20025;-96
2023/06/14 03:51:19;;;;;;;31.25;11.63;;;;;;;16.39;50.47;99965.72;6195670;22;20379;-91
2023/06/14 03:53:49;;;;;;;27.83;10.45;;;;;;;16.66;49.69;99990.03;6136645;23;20001;-91
2023/06/14 04:01:27;;;;;;;29.33;11.48;;;;;;;16.52;49.60;99938.97;6209861;23;20071;-93
2023/06/14 04:10:02;;;;;;;25.15;10.48;;;;;;;16.96;48.87;99956.81;6227813;22;20041;-93
2023/06/14 04:13:21;;;;;;;21.50;10.52;;;;;;;17.36;48.30;100004.03;6127529;23;20470;-95
2023/06/14 04:16:12;;;;;;;33.17;10.52;;;;;;;17.01;48.33;99925.41;6173797;23;20083;-90
2023/06/14 04:22:10;;;;;;;35.20;10.38;;;;;;;17.70;47.56;100002.00;6183082;23;20013;-95
2023/06/14 04:25:15;;;;;;;23.08;10.30;;;;;;;17.59;47.00;99973.19;6151622;23;20467;-95
2023/06/14 04:31:59;;;;;;;26.45;8.90;;;;;;;17.83;45.45;99989.03;6178029;23;20019;-91
2023/06/14 04:34:33;;;;;;;20.27;8.48;;;;;;;17.98;44.90;99998.59;6174340;23;20028;-94
2023/06/14 04:40:36;;;;;;;30.13;9.85;;;;;;;17.87;45.63;99948.47;6185025;23;20029;-92
2023/06/14 04:43:28;;;;;;;15.63;8.98;;;;;;;18.29;45.58;100000.78;6116667;23;20024;-90
2023/06/14 04:46:51;;;;;;;22.02;8.27;;;;;;;18.41;45.31;100003.53;6139438;23;20027;-91
2023/06/14 04:58:58;;;;;;;21.65;9.80;;;;;;;18.72;44.77;99996.56;6193108;22;20024;-94
2023/06/14 05:07:15;;;;;;;46.88;10.00;;;;;;;18.48;45.16;99917.13;6193340;22;20273;-90
2023/06/14 05:14:06;;;;;;;45.97;11.48;;;;;;;19.13;43.73;99991.75;6188945;23;20077;-94
2023/06/14 05:24:32;;;;;;;24.50;7.63;;;;;;;19.39;41.70;99994.84;6167504;23;20029;-93
2023/06/14 05:27:02;;;;;;;21.23;8.10;;;;;;;19.23;42.08;99967.09;6148895;23;20025;-92
2023/06/14 05:36:18;;;;;;;24.45;8.10;;;;;;;19.53;42.29;99949.25;6196716;23;20060;-92
2023/06/14 05:38:46;;;;;;;21.38;8.05;;;;;;;19.59;41.64;99950.59;6167663;23;20020;-91
2023/06/14 05:41:59;;;;;;;48.92;8.20;;;;;;;19.84;38.48;99982.56;6191730;23;20064;-94
2023/06/14 05:44:50;;;;;;;23.15;6.00;;;;;;;20.01;39.42;99995.25;6145990;23;20016;-93
2023/06/14 05:47:17;;;;;;;22.83;5.90;;;;;;;19.79;38.46;99954.28;6191450;23;20022;-94
2023/06/14 06:14:01;;;;;;;15.85;4.55;;;;;;;20.81;37.14;99999.47;6165573;23;20029;-96
2023/06/14 06:16:31;;;;;;;14.70;4.15;;;;;;;20.89;35.66;99983.72;6048580;23;20030;-86
2023/06/14 06:29:44;;;;;;;18.17;4.60;;;;;;;21.17;35.03;99999.38;6062879;23;20030;-88
2023/06/14 06:32:10;;;;;;;11.88;3.75;;;;;;;21.20;34.55;99999.44;6048851;23;20345;-89
2023/06/14 06:34:37;;;;;;;29.88;5.00;;;;;;;21.07;34.32;99967.41;6073196;23;20556;-90
2023/06/14 06:37:06;;;;;;;15.90;3.97;;;;;;;21.39;34.93;100000.59;6072323;23;20018;-87
2023/06/14 06:47:00;;;;;;;7.38;3.33;;;;;;;21.38;33.90;99948.94;6126510;23;20036;-92
2023/06/14 06:49:45;;;;;;;17.25;3.97;;;;;;;21.38;33.27;99933.03;6119244;23;20061;-86
2023/06/14 06:52:11;;;;;;;22.23;4.43;;;;;;;21.21;31.48;99923.19;6202255;23;20529;-91
2023/06/14 06:54:50;;;;;;;10.30;3.45;;;;;;;21.38;32.96;99949.72;6163438;23;20052;-89
2023/06/14 06:57:16;;;;;;;7.80;3.53;;;;;;;21.52;33.85;99938.03;6137401;23;20494;-87
2023/06/14 06:59:42;;;;;;;30.27;4.77;;;;;;;21.71;33.16;99957.44;6163383;23;20021;-90
2023/06/14 07:02:08;;;;;;;22.30;4.35;;;;;;;21.89;33.23;99984.78;6141297;23;20017;-93
2023/06/14 07:04:50;;;;;;;14.80;3.90;;;;;;;21.39;33.54;99894.91;6094212;23;20032;-90
2023/06/14 07:07:19;;;;;;;9.15;3.95;;;;;;;21.85;33.43;99951.31;6135383;23;20016;-90
2023/06/14 07:13:19;;;;;;;13.80;3.75;;;;;;;22.17;31.84;99988.03;6106022;23;20048;-91
2023/06/14 07:16:11;;;;;;;30.30;5.03;;;;;;;22.24;33.78;99981.75;6057732;23;20052;-90
2023/06/14 07:18:38;;;;;;;13.13;4.07;;;;;;;22.12;31.96;99960.50;6105269;23;20065;-93
2023/06/14 07:21:05;;;;;;;8.10;3.47;;;;;;;22.16;33.76;99960.56;6157982;23;20028;-88
2023/06/14 07:23:35;;;;;;;8.05;3.75;;;;;;;21.98;33.39;99915.72;6246913;23;20247;-90
2023/06/14 07:26:04;;;;;;;30.98;4.60;;;;;;;22.27;33.03;99964.31;6134741;23;20026;-93
2023/06/14 07:28:40;;;;;;;8.27;4.13;;;;;;;21.90;32.20;99908.44;6108125;23;20356;-87
2023/06/14 07:31:09;;;;;;;9.90;3.78;;;;;;;22.35;33.28;99979.94;6087505;23;20017;-92
2023/06/14 07:33:38;;;;;;;10.55;4.15;;;;;;;22.36;33.87;99952.91;6089614;23;20108;-90
2023/06/14 07:36:24;;;;;;;20.88;4.72;;;;;;;22.48;33.38;99958.22;6136767;23;20590;-92
2023/06/14 07:38:50;;;;;;;10.20;3.60;;;;;;;22.53;32.02;99963.47;6052050;23;20070;-93
2023/06/14 07:41:17;;;;;;;11.75;3.85;;;;;;;22.39;31.33;99927.06;6034030;23;20053;-92
2023/06/14 07:44:13;;;;;;;9.68;3.85;;;;;;;22.45;32.07;99950.59;6049939;23;20022;-92
2023/06/14 07:46:40;;;;;;;6.03;3.63;;;;;;;22.36;32.56;99927.81;6051695;23;20470;-90
2023/06/14 07:49:06;;;;;;;15.80;4.05;;;;;;;22.74;31.10;99962.94;6003283;23;20046;-90
2023/06/14 07:51:33;;;;;;;19.52;5.00;;;;;;;22.92;31.73;99968.75;6049043;23;20023;-91
2023/06/14 07:54:03;;;;;;;21.38;5.13;;;;;;;22.70;31.32;99925.84;6025060;23;20023;-92
2023/06/14 07:56:29;;;;;;;14.68;4.80;;;;;;;22.93;29.84;99970.38;6022401;23;20504;-92
2023/06/14 07:59:02;;;;;;;18.08;4.40;;;;;;;22.64;30.52;99922.59;6071843;23;20015;-92
2023/06/14 08:01:28;;;;;;;9.65;4.07;;;;;;;22.67;30.99;99924.63;6026687;23;20019;-90
2023/06/14 08:03:55;;;;;;;19.30;4.90;;;;;;;22.86;30.33;99947.94;6004410;23;20018;-93
2023/06/14 08:13:52;;;;;;;14.77;4.18;;;;;;;23.08;29.27;99977.72;6050238;23;20573;-95
2023/06/14 08:16:19;;;;;;;29.67;4.40;;;;;;;22.79;29.89;99918.00;6056720;23;20467;-89
2023/06/14 08:21:36;;;;;;;21.48;4.75;;;;;;;22.87;28.50;99924.47;6158087;23;20033;-90
2023/06/14 08:24:03;;;;;;;38.50;4.80;;;;;;;22.67;28.28;99898.75;6135929;23;20033;-91
2023/06/14 08:26:31;;;;;;;23.67;4.63;;;;;;;22.85;29.87;99919.28;6137674;23;20017;-93
2023/06/14 08:29:01;;;;;;;12.18;3.97;;;;;;;22.82;29.21;99919.22;6136090;23;20041;-93
2023/06/14 08:31:28;;;;;;;27.73;5.22;;;;;;;22.76;28.61;99915.97;6112586;23;20013;-87
2023/06/14 08:33:54;;;;;;;16.50;4.50;;;;;;;22.57;29.59;99886.28;6110226;23;20021;-91
2023/06/14 08:36:25;;;;;;;18.40;5.32;;;;;;;22.74;30.47;99888.47;6116191;23;20067;-93
2023/06/14 08:39:00;;;;;;;40.95;5.03;;;;;;;22.75;28.82;99878.16;6173099;23;20025;-92
2023/06/14 08:41:29;;;;;;;34.10;4.70;;;;;;;23.08;28.77;99933.09;6135509;23;20040;-90
2023/06/14 08:44:20;;;;;;;11.32;4.35;;;;;;;23.35;29.75;99944.91;6140823;23;20072;-90
2023/06/14 08:46:48;;;;;;;18.17;5.60;;;;;;;23.24;28.80;99916.09;6107221;23;20022;-89
2023/06/14 08:49:17;;;;;;;11.80;4.45;;;;;;;23.46;29.14;99925.47;6105607;23;20037;-90
2023/06/14 08:52:33;;;;;;;13.43;4.97;;;;;;;23.71;28.95;99950.03;6079033;23;20020;-85
2023/06/14 08:55:50;;;;;;;19.20;4.05;;;;;;;23.71;29.08;99959.22;6156741;23;20527;-88
2023/06/14 08:58:17;;;;;;;14.73;5.10;;;;;;;23.41;27.50;99912.69;6107958;23;20048;-90
2023/06/14 09:00:44;;;;;;;13.30;4.95;;;;;;;23.61;28.13;99941.16;6135666;23;20464;-91
2023/06/14 09:03:33;;;;;;;21.27;4.93;;;;;;;23.66;27.30;99928.84;6137114;23;20107;-90
2023/06/14 09:08:48;;;;;;;12.77;4.30;;;;;;;23.87;28.75;99928.22;6158122;23;20029;-88
2023/06/14 09:11:41;;;;;;;12.25;4.65;;;;;;;24.08;28.51;99944.34;6148591;23;20479;-87
2023/06/14 09:14:08;;;;;;;24.40;4.50;;;;;;;23.89;26.62;99897.91;6187463;23;20082;-87
2023/06/14 09:16:36;;;;;;;;;;;;;;;24.16;28.26;99940.38;6189288;23;20109;-93
2023/06/14 09:20:01;;;;;;;14.10;4.47;;;;;;;23.81;26.95;99918.63;6188733;23;19976;-88
2023/06/14 09:26:31;;;;;;;14.02;5.20;;;;;;;24.12;28.75;99928.38;6188508;23;20032;-88
2023/06/14 09:29:22;;;;;;;9.90;4.75;;;;;;;24.35;28.65;99928.91;6136697;23;20040;-88
2023/06/14 09:31:49;;;;;;;23.38;4.72;;;;;;;24.46;28.52;99929.00;6096076;23;20060;-87
2023/06/14 09:34:18;;;;;;;9.63;4.07;;;;;;;24.39;28.69;99900.97;6158927;23;20020;-88
2023/06/14 09:36:44;;;;;;;24.95;5.00;;;;;;;24.55;29.39;99911.88;6135631;23;20076;-88
2023/06/14 09:39:35;;;;;;;17.33;4.88;;;;;;;24.51;26.19;99931.44;6160568;23;20049;-89
2023/06/14 09:42:18;;;;;;;19.98;5.45;;;;;;;24.54;28.46;99927.84;6159460;23;20017;-88
2023/06/14 09:44:47;;;;;;;16.48;5.18;;;;;;;24.51;26.60;99906.28;6186737;23;20017;-90
2023/06/14 09:47:30;;;;;;;10.80;4.50;;;;;;;24.43;26.61;99879.47;6185294;23;20020;-88
2023/06/14 09:50:16;;;;;;;12.55;5.00;;;;;;;24.66;25.71;99906.31;6134531;23;20033;-88
2023/06/14 09:52:44;;;;;;;17.35;5.30;;;;;;;24.31;26.60;99855.44;6064983;23;20026;-88
2023/06/14 09:55:37;;;;;;;20.20;4.80;;;;;;;24.88;28.20;99913.56;6042639;23;20455;-87
2023/06/14 09:58:23;;;;;;;8.10;4.47;;;;;;;24.78;27.41;99875.19;6018810;23;20026;-92
2023/06/14 10:00:52;;;;;;;24.20;4.75;;;;;;;24.77;26.61;99874.41;6046044;23;20066;-90
2023/06/14 10:06:09;;;;;;;11.68;4.28;;;;;;;25.01;27.58;99878.44;6153815;23;20367;-89
2023/06/14 10:08:40;;;;;;;19.58;4.95;;;;;;;25.13;26.38;99896.84;6113245;23;20013;-89
2023/06/14 10:11:07;;;;;;;21.73;4.82;;;;;;;24.90;25.92;99885.19;6142528;23;20066;-90
2023/06/14 10:13:59;;;;;;;16.15;4.63;;;;;;;24.98;27.15;99873.66;6151000;23;20060;-89
2023/06/14 10:17:03;;;;;;;10.77;4.68;;;;;;;25.33;28.41;99885.28;6168318;23;20489;-89
2023/06/14 10:20:14;;;;;;;14.15;4.80;;;;;;;25.35;27.15;99889.28;6170231;23;20017;-90
2023/06/14 10:26:04;;;;;;;10.43;4.90;;;;;;;24.81;24.45;99841.66;6073386;23;20015;-90
2023/06/14 10:28:39;;;;;;;12.32;4.57;;;;;;;24.87;23.68;99858.03;6074617;23;20022;-90
2023/06/14 10:32:04;;;;;;;8.70;4.65;;;;;;;25.00;24.08;99885.25;6047986;23;20066;-89
2023/06/14 10:34:33;;;;;;;16.52;5.00;;;;;;;24.72;24.35;99844.03;6050130;23;20023;-90
2023/06/14 10:37:10;;;;;;;14.55;4.90;;;;;;;24.93;25.50;99868.44;6171569;23;20035;-92
2023/06/14 10:43:24;;;;;;;12.57;5.55;;;;;;;25.08;26.00;99856.06;6184899;23;20025;-88
2023/06/14 10:46:15;;;;;;;17.08;4.85;;;;;;;25.22;24.68;99854.50;6165593;23;20021;-91
2023/06/14 10:48:57;;;;;;;22.60;5.55;;;;;;;24.89;24.95;99808.91;6153277;23;20044;-88
2023/06/14 10:52:20;;;;;;;27.25;5.63;;;;;;;25.41;26.35;99861.72;6163303;23;20021;-88
2023/06/14 10:55:10;;;;;;;26.60;4.65;;;;;;;25.43;23.99;99862.91;6136868;23;20046;-84
2023/06/14 10:57:40;;;;;;;18.10;5.70;;;;;;;25.38;23.79;99862.50;6161472;23;20021;-88
2023/06/14 11:00:17;;;;;;;12.02;5.25;;;;;;;25.13;24.34;99834.50;6161300;23;20024;-87
2023/06/14 11:03:39;;;;;;;13.95;4.50;;;;;;;25.35;23.85;99861.31;6163120;23;20471;-87
2023/06/14 11:06:13;;;;;;;11.88;4.65;;;;;;;25.34;24.38;99845.72;6188157;23;20052;-89
2023/06/14 11:09:05;;;;;;;19.98;4.30;;;;;;;25.46;25.76;99827.72;6167723;23;20021;-88
2023/06/14 11:11:36;;;;;;;8.75;4.22;;;;;;;25.74;26.10;99818.47;6134454;23;20025;-85
2023/06/14 11:14:05;;;;;;;20.77;5.35;;;;;;;25.80;24.11;99811.28;6184648;23;20028;-85
2023/06/14 11:16:33;;;;;;;7.55;4.18;;;;;;;26.00;24.59;99829.22;6184223;23;20064;-87
2023/06/14 11:19:03;;;;;;;27.55;5.63;;;;;;;26.21;25.67;99849.97;6134230;23;20017;-88
2023/06/14 11:21:31;;;;;;;11.65;4.75;;;;;;;25.91;25.12;99800.84;6110878;23;20040;-88
2023/06/14 11:24:22;;;;;;;41.15;5.45;;;;;;;26.17;24.99;99829.56;6154914;23;20018;-87
2023/06/14 11:27:13;;;;;;;24.30;5.28;;;;;;;26.28;25.13;99844.34;6155866;23;20137;-88
2023/06/14 11:29:50;;;;;;;13.75;4.50;;;;;;;26.07;25.63;99794.78;6162597;23;20028;-90
2023/06/14 11:32:16;;;;;;;;;;;;;;;26.55;25.23;99841.81;6115542;23;20116;-89
2023/06/14 11:38:15;;;;;;;;;;;;;;;26.49;24.36;99840.69;6186548;23;19916;-88
2023/06/14 11:40:43;;;;;;;10.55;4.55;;;;;;;26.68;26.46;99826.13;6158982;23;19991;-88
2023/06/14 11:43:09;;;;;;;29.58;5.55;;;;;;;26.66;24.77;99805.34;6156870;23;20021;-90
2023/06/14 11:45:36;;;;;;;17.20;5.10;;;;;;;26.48;25.52;99755.75;6184179;23;20017;-88
2023/06/14 11:48:09;;;;;;;25.65;4.63;;;;;;;26.65;24.23;99803.72;6134516;23;20415;-88
2023/06/14 11:51:01;;;;;;;15.35;4.85;;;;;;;26.92;25.07;99807.56;6132486;23;20052;-88
2023/06/14 11:53:28;;;;;;;17.52;4.85;;;;;;;26.61;24.05;99750.47;6109515;23;20013;-89
2023/06/14 11:55:54;;;;;;;14.35;5.03;;;;;;;26.75;23.93;99763.56;6157926;23;20021;-90
2023/06/14 11:58:22;;;;;;;12.80;4.50;;;;;;;26.78;22.67;99785.19;6157307;23;20071;-89
2023/06/14 12:00:52;;;;;;;26.23;5.55;;;;;;;26.81;25.19;99772.34;6134852;23;20009;-89
2023/06/14 12:03:35;;;;;;;32.17;6.35;;;;;;;27.21;25.36;99801.72;6185715;23;20028;-91
2023/06/14 12:06:58;;;;;;;;;;;;;;;;;;;;;
2023/06/14 12:09:33;;;;;;;14.35;5.20;;;;;;;27.02;24.63;99746.13;6125364;23;20018;-90
2023/06/14 12:12:03;;;;;;;30.00;5.38;;;;;;;27.13;24.74;99764.50;6101813;23;20022;-92
2023/06/14 12:15:22;;;;;;;24.30;5.03;;;;;;;27.36;24.69;99775.13;6124322;23;20032;-89
2023/06/14 12:17:48;;;;;;;16.15;4.80;;;;;;;27.29;24.00;99789.22;6122191;23;20046;-90
2023/06/14 13:08:45;;;;;;;25.08;4.75;;;;;;;28.28;23.33;99761.22;6244910;23;20062;-94
2023/06/14 13:15:08;;;;;;;22.83;5.38;;;;;;;27.88;23.46;99695.50;6154767;23;20032;-90
2023/06/14 13:17:38;;;;;;;15.88;5.20;;;;;;;28.22;23.62;99705.91;6174965;23;20029;-89
2023/06/14 13:21:06;;;;;;;20.85;5.22;;;;;;;28.52;23.21;99752.88;6130706;23;20479;-88
2023/06/14 13:24:12;;;;;;;27.27;6.22;;;;;;;27.92;24.94;99673.00;6155848;23;20060;-84
2023/06/14 13:26:51;;;;;;;18.13;4.90;;;;;;;28.16;23.47;99701.97;6181100;23;20017;-91
2023/06/14 13:40:02;;;;;;;21.45;5.95;;;;;;;28.36;23.50;99738.63;6142082;23;20043;-90
2023/06/14 13:46:21;;;;;;;13.68;4.88;;;;;;;28.36;22.05;99733.78;6155160;23;20070;-91
2023/06/14 13:53:10;;;;;;;15.23;4.60;;;;;;;27.81;22.58;99640.19;6180553;23;20087;-90
2023/06/14 13:55:37;;;;;;;12.30;5.18;;;;;;;27.89;24.44;99652.16;6134792;23;20013;-89
2023/06/14 13:58:23;;;;;;;19.25;5.40;;;;;;;28.38;22.48;99736.16;6118093;23;20022;-92
2023/06/14 14:04:09;;;;;;;20.58;5.25;;;;;;;27.95;23.20;99681.38;6176332;23;20029;-89
2023/06/14 14:06:35;;;;;;;10.57;4.78;;;;;;;27.80;21.29;99663.09;6120007;23;20025;-89
2023/06/14 14:09:11;;;;;;;18.35;4.93;;;;;;;28.12;22.16;99710.44;6127579;23;20526;-88
2023/06/14 14:12:23;;;;;;;12.55;5.20;;;;;;;28.20;23.03;99728.00;6123096;23;20021;-91
2023/06/14 14:19:40;;;;;;;11.60;4.30;;;;;;;28.23;24.45;99729.97;6154952;23;20036;-87
2023/06/14 14:26:48;;;;;;;12.25;4.53;;;;;;;28.41;23.54;99716.50;6154920;23;20428;-88
2023/06/14 14:34:17;;;;;;;16.80;4.38;;;;;;;28.01;24.97;99642.34;6176348;23;20028;-89
2023/06/14 14:41:06;;;;;;;26.77;5.65;;;;;;;28.10;22.83;99676.34;6148063;23;20352;-93
2023/06/14 14:43:32;;;;;;;11.45;4.30;;;;;;;27.97;23.08;99676.09;6107747;23;20420;-90
2023/06/14 14:46:08;;;;;;;14.95;4.70;;;;;;;27.75;23.54;99661.53;6132592;23;20023;-91
2023/06/14 14:57:17;;;;;;;19.80;4.75;;;;;;;28.05;23.88;99733.03;6157283;23;20127;-88
2023/06/14 14:59:43;;;;;;;11.38;5.28;;;;;;;27.92;23.37;99703.91;6092600;23;20025;-90
2023/06/14 15:02:10;;;;;;;23.10;4.88;;;;;;;27.94;23.31;99705.06;6091951;23;20552;-88
2023/06/14 15:05:08;;;;;;;11.88;4.65;;;;;;;27.61;24.26;99642.84;6128609;23;20025;-89
2023/06/14 15:07:34;;;;;;;18.48;4.45;;;;;;;27.81;23.25;99659.06;6082961;23;20158;-86
2023/06/14 15:16:39;;;;;;;14.25;4.38;;;;;;;27.75;23.51;99664.34;6043975;23;19977;-89
2023/06/14 15:19:05;;;;;;;17.80;4.80;;;;;;;27.72;23.17;99670.81;6125452;23;20016;-90
2023/06/14 15:21:33;;;;;;;17.52;5.00;;;;;;;27.91;24.23;99688.25;6100934;23;20103;-94
2023/06/14 15:48:22;;;;;;;21.08;7.40;;;;;;;27.82;23.74;99714.84;6132796;23;20025;-90
2023/06/14 15:50:56;;;;;;;15.35;4.35;;;;;;;27.40;24.68;99654.34;6135449;23;20024;-95
2023/06/14 15:53:39;;;;;;;19.73;4.88;;;;;;;27.34;23.92;99656.03;6108696;23;20013;-91
2023/06/14 15:57:16;;;;;;;20.83;4.97;;;;;;;27.71;23.75;99721.78;6088902;23;20032;-95
2023/06/14 15:59:59;;;;;;;;;;;;;;;;;;;;;
2023/06/14 16:08:41;;;;;;;18.08;5.00;;;;;;;26.85;23.63;99688.97;6174914;23;20459;-95
2023/06/14 16:11:07;;;;;;;17.95;5.28;;;;;;;26.85;23.30;99714.22;6140177;23;20044;-94
2023/06/14 16:13:35;;;;;;;17.23;4.72;;;;;;;26.54;23.45;99690.84;6140435;23;20029;-93
2023/06/14 16:19:46;;;;;;;28.17;6.53;;;;;;;25.79;23.83;99686.41;6152906;23;20017;-92
2023/06/14 16:32:08;;;;;;;37.33;11.13;;;;;;;25.19;26.03;99743.38;6185079;23;20032;-91
2023/06/14 16:38:34;;;;;;;8.02;4.13;;;;;;;25.05;25.88;99769.34;6098232;23;20054;-91
2023/06/14 16:41:01;;;;;;;15.40;4.50;;;;;;;24.67;26.08;99718.63;6069336;23;20097;-89
2023/06/14 16:43:27;;;;;;;6.35;3.90;;;;;;;24.35;25.63;99673.84;6070169;23;20040;-86
2023/06/14 16:45:57;;;;;;;18.35;4.70;;;;;;;24.46;26.50;99702.59;6088184;23;20086;-91
2023/06/14 16:48:55;;;;;;;;;;;;;;;;;;;;;
2023/06/14 16:51:50;;;;;;;;;;;;;;;24.63;29.36;99761.72;6187507;23;20546;-87
2023/06/14 16:57:33;;;;;;;41.97;6.20;;;;;;;23.89;29.18;99717.22;6098996;23;20024;-92
2023/06/14 17:03:27;;;;;;;12.88;5.10;;;;;;;23.70;29.69;99723.13;6027010;23;20018;-90
2023/06/14 17:06:17;;;;;;;53.75;5.38;;;;;;;23.73;30.11;99749.44;6087614;23;20625;-88
2023/06/14 17:13:14;;;;;;;32.45;5.72;;;;;;;23.20;33.82;99723.59;6127855;23;20028;-90
2023/06/14 17:15:40;;;;;;;24.98;5.63;;;;;;;23.27;32.03;99744.38;6186479;22;20024;-94
2023/06/14 17:18:09;;;;;;;52.55;7.13;;;;;;;22.84;31.96;99700.22;6208607;23;20013;-93
2023/06/14 17:21:02;;;;;;;31.10;7.45;;;;;;;23.05;30.71;99746.22;6229297;23;20016;-93
2023/06/14 17:23:28;;;;;;;35.83;9.98;;;;;;;22.81;30.68;99725.28;6090292;23;20021;-89
2023/06/14 17:25:55;;;;;;;47.75;8.43;;;;;;;22.83;32.25;99734.06;6168440;23;20017;-89
2023/06/14 17:28:21;;;;;;;19.30;7.75;;;;;;;22.46;31.58;99696.72;6090521;23;20458;-91
2023/06/14 17:34:58;;;;;;;41.03;8.02;;;;;;;22.83;31.35;99778.66;6197253;23;20025;-92
2023/06/14 17:37:24;;;;;;;23.25;6.03;;;;;;;22.48;31.70;99752.03;6136802;23;20074;-92
2023/06/14 17:39:55;;;;;;;19.83;6.05;;;;;;;22.01;32.71;99701.38;6161501;23;20207;-93
2023/06/14 17:42:23;;;;;;;30.80;5.63;;;;;;;22.10;32.48;99740.09;6114101;23;20024;-90
2023/06/14 17:45:00;;;;;;;16.60;4.93;;;;;;;21.75;32.47;99691.16;6138163;23;20013;-90
2023/06/14 17:47:28;;;;;;;22.35;5.57;;;;;;;21.62;32.68;99678.66;6128590;23;20624;-93
2023/06/14 17:53:03;;;;;;;17.17;7.50;;;;;;;21.91;35.00;99746.59;6134716;23;20069;-91
2023/06/14 17:55:51;;;;;;;32.28;8.10;;;;;;;21.93;34.86;99768.50;6099959;23;20045;-90
2023/06/14 17:58:21;;;;;;;20.17;6.57;;;;;;;21.76;33.09;99765.13;6165493;23;20009;-91
2023/06/14 18:00:52;;;;;;;15.57;7.32;;;;;;;21.92;33.49;99790.00;6162416;23;20021;31
2023/06/14 18:07:24;;;;;;;25.30;6.03;;;;;;;21.46;35.34;99747.63;6154476;23;20052;-89
2023/06/14 18:09:50;;;;;;;16.35;6.65;;;;;;;21.29;33.93;99752.53;6151382;23;20076;-89
2023/06/14 18:12:16;;;;;;;19.27;5.43;;;;;;;21.66;34.66;99806.72;6126450;23;20560;-88
2023/06/14 18:14:43;;;;;;;16.97;5.43;;;;;;;21.64;35.47;99806.28;6124439;23;20053;-87
2023/06/14 18:17:09;;;;;;;27.10;6.47;;;;;;;21.65;35.96;99811.47;6103513;23;20038;-88
2023/06/14 18:19:38;;;;;;;15.43;5.50;;;;;;;21.47;35.36;99790.94;6079270;23;20428;-89
2023/06/14 18:22:07;;;;;;;19.35;5.57;;;;;;;21.38;35.56;99785.63;6127011;23;20384;-89
2023/06/14 18:24:33;;;;;;;39.03;6.17;;;;;;;21.35;33.95;99794.72;6126271;23;20021;-88
2023/06/14 18:27:10;;;;;;;27.92;5.95;;;;;;;21.08;34.89;99763.28;6150960;23;20064;-88
2023/06/14 18:30:02;;;;;;;38.90;4.53;;;;;;;20.71;34.36;99715.84;6127037;23;20104;-87
2023/06/14 18:32:54;;;;;;;19.33;5.22;;;;;;;21.21;33.62;99808.38;6040060;23;20030;-88
2023/06/14 18:35:26;;;;;;;17.73;5.60;;;;;;;20.82;33.33;99764.84;6065949;23;20362;-88
2023/06/14 18:38:44;;;;;;;7.90;4.85;;;;;;;21.13;33.82;99809.47;6026999;23;20044;-87
2023/06/14 18:41:10;;;;;;;10.93;4.82;;;;;;;20.57;33.42;99739.44;6064988;23;20018;-87
2023/06/14 18:43:36;;;;;;;16.77;4.47;;;;;;;20.66;34.09;99764.16;6068481;23;20053;-88
2023/06/14 18:46:04;;;;;;;11.33;4.60;;;;;;;20.92;34.27;99815.44;6068390;23;20121;-89
2023/06/14 18:48:31;;;;;;;12.57;4.43;;;;;;;20.94;34.72;99818.66;6069928;23;20033;-91
2023/06/14 18:50:57;;;;;;;10.90;5.18;;;;;;;20.23;34.92;99724.50;5998884;23;20108;-89
2023/06/14 18:53:26;;;;;;;21.57;5.30;;;;;;;20.48;34.71;99779.69;6092582;23;20074;-89
2023/06/14 18:55:53;;;;;;;21.48;4.75;;;;;;;20.37;34.52;99755.31;6068884;23;20022;-86
2023/06/14 18:58:19;;;;;;;134.80;9.27;;;;;;;20.29;35.26;99766.63;6066192;23;20014;-87
2023/06/14 19:00:46;;;;;;;38.40;6.43;;;;;;;20.53;35.08;99819.13;6089833;23;20101;-88
2023/06/14 19:03:13;;;;;;;23.42;6.07;;;;;;;20.57;35.32;99819.19;6092980;23;20026;-89
2023/06/14 19:05:39;;;;;;;87.65;8.55;;;;;;;20.37;36.47;99804.50;6069196;23;20543;-89
2023/06/14 19:08:05;;;;;;;31.33;6.23;;;;;;;20.40;35.39;99812.88;6094103;23;20026;-90
2023/06/14 19:10:31;;;;;;;;;;;;;;;20.39;35.91;99810.47;6135504;23;20020;-87
2023/06/14 19:12:57;;;;;;;19.45;10.13;;;;;;;20.35;35.14;99818.72;6158489;23;20265;-90
2023/06/14 19:15:24;;;;;;;33.25;11.45;;;;;;;20.32;35.72;99821.44;6189188;23;20023;-92
2023/06/14 19:18:01;;;;;;;21.45;10.32;;;;;;;20.26;36.08;99814.56;6134777;23;20021;-88
2023/06/14 19:20:27;;;;;;;;;;;;;;;20.24;36.35;99816.94;6190378;23;20027;-89
2023/06/14 19:22:53;;;;;;;34.83;9.13;;;;;;;19.78;36.82;99752.94;6185693;23;19923;-90
2023/06/14 19:25:20;;;;;;;26.98;8.82;;;;;;;20.10;36.96;99820.22;6101499;23;20136;-90